createdAt,value
2022-09-12T00:01:14.803Z,83.02
2022-09-12T00:03:42.299Z,82.75
2022-09-12T00:06:33.099Z,81.41
2022-09-12T00:09:02.517Z,80.29
2022-09-12T00:11:29.798Z,82.46
2022-09-12T00:13:59.968Z,82.81
2022-09-12T00:16:29.523Z,82.50
2022-09-12T00:18:56.780Z,81.91
2022-09-12T00:21:24.695Z,82.84
2022-09-12T00:23:51.972Z,82.65
2022-09-12T00:26:20.964Z,82.59
2022-09-12T00:28:48.518Z,82.16
2022-09-12T00:31:21.041Z,82.91
2022-09-12T00:33:48.216Z,82.78
2022-09-12T00:36:21.907Z,82.71
2022-09-12T00:38:50.171Z,82.99
2022-09-12T00:41:30.876Z,82.39
2022-09-12T00:44:02.147Z,82.39
2022-09-12T00:46:36.312Z,82.52
2022-09-12T00:49:25.663Z,82.07
2022-09-12T00:52:09.638Z,81.14
2022-09-12T00:54:52.962Z,82.27
2022-09-12T00:57:24.164Z,82.48
2022-09-12T01:00:04.572Z,82.31
2022-09-12T01:02:31.608Z,82.49
2022-09-12T01:04:58.531Z,82.56
2022-09-12T01:07:25.546Z,82.46
2022-09-12T01:09:52.797Z,82.30
2022-09-12T01:12:20.419Z,82.45
2022-09-12T01:14:47.340Z,82.30
2022-09-12T01:17:16.694Z,82.20
2022-09-12T01:20:36.484Z,80.63
2022-09-12T01:23:48.148Z,80.74
2022-09-12T01:26:33.513Z,82.23
2022-09-12T01:29:30.778Z,81.50
2022-09-12T01:32:05.440Z,82.09
2022-09-12T01:34:57.871Z,80.83
2022-09-12T01:37:54.915Z,80.45
2022-09-12T01:40:28.785Z,81.83
2022-09-12T01:43:17.672Z,81.31
2022-09-12T01:46:03.072Z,81.41
2022-09-12T01:48:40.215Z,82.45
2022-09-12T01:51:28.020Z,82.12
2022-09-12T01:54:05.161Z,82.25
2022-09-12T01:56:36.122Z,82.53
2022-09-12T01:59:28.601Z,81.63
2022-09-12T02:02:21.956Z,80.86
2022-09-12T02:05:20.622Z,80.93
2022-09-12T02:08:17.158Z,81.29
2022-09-12T02:11:07.947Z,81.54
2022-09-12T02:14:02.803Z,81.35
2022-09-12T02:16:52.754Z,81.17
2022-09-12T02:19:26.835Z,82.43
2022-09-12T02:22:01.379Z,82.04
2022-09-12T02:24:39.427Z,81.04
2022-09-12T02:27:26.773Z,80.95
2022-09-12T02:29:53.965Z,82.37
2022-09-12T02:33:05.657Z,80.50
2022-09-12T02:36:04.320Z,81.00
2022-09-12T02:38:45.757Z,81.19
2022-09-12T02:41:18.768Z,82.08
2022-09-12T02:43:46.733Z,81.85
2022-09-12T02:46:33.171Z,81.00
2022-09-12T02:49:01.188Z,82.22
2022-09-12T02:51:28.340Z,82.29
2022-09-12T02:53:55.900Z,81.98
2022-09-12T02:56:29.420Z,81.99
2022-09-12T02:59:07.980Z,81.34
2022-09-12T03:02:22.743Z,80.64
2022-09-12T03:05:17.900Z,80.58
2022-09-12T03:07:50.819Z,81.79
2022-09-12T03:11:02.240Z,80.70
2022-09-12T03:13:29.037Z,82.34
2022-09-12T03:16:29.976Z,81.54
2022-09-12T03:19:06.417Z,80.09
2022-09-12T03:22:13.246Z,80.37
2022-09-12T03:25:12.464Z,81.26
2022-09-12T03:28:07.409Z,81.15
2022-09-12T03:30:43.713Z,81.51
2022-09-12T03:33:17.200Z,81.81
2022-09-12T03:35:46.566Z,82.16
2022-09-12T03:38:13.586Z,81.64
2022-09-12T03:40:40.938Z,81.88
2022-09-12T03:43:08.834Z,81.89
2022-09-12T03:45:37.056Z,82.19
2022-09-12T03:48:06.058Z,81.85
2022-09-12T03:50:33.774Z,82.04
2022-09-12T03:53:02.097Z,82.24
2022-09-12T03:55:29.110Z,81.92
2022-09-12T03:57:56.485Z,81.98
2022-09-12T04:00:23.776Z,82.22
2022-09-12T04:02:55.963Z,81.47
2022-09-12T04:05:24.717Z,82.41
2022-09-12T04:07:52.182Z,81.88
2022-09-12T04:10:19.227Z,82.31
2022-09-12T04:12:46.153Z,82.33
2022-09-12T04:15:13.236Z,82.78
2022-09-12T04:17:40.165Z,82.61
2022-09-12T04:20:07.712Z,82.11
2022-09-12T04:22:34.671Z,82.39
2022-09-12T04:25:01.933Z,82.62
2022-09-12T04:27:29.009Z,83.01
2022-09-12T04:29:56.417Z,82.91
2022-09-12T04:32:23.379Z,82.61
2022-09-12T04:34:52.286Z,82.33
2022-09-12T04:37:19.330Z,82.50
2022-09-12T04:39:48.436Z,82.32
2022-09-12T04:42:16.128Z,82.49
2022-09-12T04:44:43.173Z,82.71
2022-09-12T04:47:10.164Z,82.80
2022-09-12T04:49:37.638Z,82.61
2022-09-12T04:52:04.656Z,82.76
2022-09-12T04:54:31.820Z,82.62
2022-09-12T04:56:59.529Z,82.83
2022-09-12T04:59:27.652Z,83.32
2022-09-12T05:01:54.650Z,82.61
2022-09-12T05:04:21.637Z,83.02
2022-09-12T05:06:48.782Z,83.07
2022-09-12T05:09:16.447Z,82.88
2022-09-12T05:14:33.206Z,82.71
2022-09-12T05:17:01.553Z,83.00
2022-09-12T05:19:30.808Z,83.33
2022-09-12T05:21:58.934Z,82.69
2022-09-12T05:24:26.005Z,83.07
2022-09-12T05:26:53.284Z,82.84
2022-09-12T05:29:20.278Z,83.26
2022-09-12T05:31:50.069Z,83.17
2022-09-12T05:34:17.027Z,82.74
2022-09-12T05:36:44.009Z,82.97
2022-09-12T05:39:10.944Z,82.73
2022-09-12T05:41:38.158Z,82.65
2022-09-12T05:44:11.026Z,83.02
2022-09-12T05:46:44.141Z,82.96
2022-09-12T05:49:13.709Z,83.45
2022-09-12T05:51:44.832Z,82.95
2022-09-12T05:54:18.036Z,82.90
2022-09-12T05:56:45.556Z,83.12
2022-09-12T05:59:21.953Z,82.82
2022-09-12T06:01:49.507Z,82.97
2022-09-12T06:04:17.062Z,83.30
2022-09-12T06:06:45.574Z,83.06
2022-09-12T06:09:15.384Z,83.32
2022-09-12T06:11:43.510Z,83.23
2022-09-12T06:14:14.795Z,83.14
2022-09-12T06:16:42.273Z,82.98
2022-09-12T06:19:21.609Z,82.68
2022-09-12T06:21:53.538Z,83.09
2022-09-12T06:24:21.476Z,83.81
2022-09-12T06:26:49.804Z,84.08
2022-09-12T06:29:16.802Z,83.71
2022-09-12T06:31:44.250Z,83.93
2022-09-12T06:34:14.683Z,83.77
2022-09-12T06:36:45.179Z,83.78
2022-09-12T06:39:16.156Z,83.87
2022-09-12T06:41:44.403Z,83.83
2022-09-12T06:44:19.248Z,83.73
2022-09-12T06:46:46.350Z,83.85
2022-09-12T06:49:14.186Z,84.03
2022-09-12T06:51:44.462Z,84.51
2022-09-12T06:54:16.730Z,83.71
2022-09-12T06:56:44.879Z,84.35
2022-09-12T06:59:11.923Z,84.38
2022-09-12T07:01:40.280Z,84.04
2022-09-12T07:04:07.657Z,84.18
2022-09-12T07:06:42.843Z,83.82
2022-09-12T07:09:18.034Z,84.21
2022-09-12T07:11:46.405Z,84.22
2022-09-12T07:14:15.293Z,84.37
2022-09-12T07:16:42.851Z,83.91
2022-09-12T07:19:10.431Z,83.79
2022-09-12T07:21:40.040Z,83.80
2022-09-12T07:24:09.897Z,83.70
2022-09-12T07:26:38.158Z,84.25
2022-09-12T07:29:32.420Z,84.47
2022-09-12T07:31:52.199Z,84.44
2022-09-12T07:34:19.160Z,84.14
2022-09-12T07:36:46.136Z,83.89
2022-09-12T07:39:13.059Z,84.19
2022-09-12T07:41:40.115Z,84.38
2022-09-12T07:44:07.183Z,84.34
2022-09-12T07:46:35.306Z,84.56
2022-09-12T07:49:03.255Z,83.95
2022-09-12T07:51:31.690Z,83.93
2022-09-12T07:53:59.343Z,83.59
2022-09-12T07:56:31.161Z,84.11
2022-09-12T07:58:59.766Z,83.69
2022-09-12T08:01:27.115Z,83.88
2022-09-12T08:03:59.420Z,83.71
2022-09-12T08:06:32.098Z,83.71
2022-09-12T08:09:00.028Z,83.87
2022-09-12T08:11:29.127Z,83.70
2022-09-12T08:13:57.911Z,83.45
2022-09-12T08:16:31.099Z,83.33
2022-09-12T08:19:00.338Z,83.04
2022-09-12T08:21:30.738Z,83.23
2022-09-12T08:24:02.888Z,82.91
2022-09-12T08:26:30.892Z,83.46
2022-09-12T08:28:57.840Z,83.17
2022-09-12T08:31:26.988Z,83.47
2022-09-12T08:33:58.240Z,83.25
2022-09-12T08:36:27.983Z,83.16
2022-09-12T08:39:04.901Z,83.38
2022-09-12T08:41:45.567Z,83.59
2022-09-12T08:44:34.862Z,83.74
2022-09-12T08:47:32.132Z,83.47
2022-09-12T08:50:11.726Z,84.01
2022-09-12T08:52:56.049Z,84.09
2022-09-12T08:55:38.109Z,84.58
2022-09-12T08:58:23.133Z,83.74
2022-09-12T09:01:39.054Z,83.49
2022-09-12T09:04:52.596Z,83.14
2022-09-12T09:07:49.933Z,83.83
2022-09-12T09:10:44.416Z,83.93
2022-09-12T09:13:57.064Z,84.37
2022-09-12T09:16:34.911Z,83.72
2022-09-12T09:19:17.513Z,84.05
2022-09-12T09:22:03.171Z,84.03
2022-09-12T09:24:58.863Z,84.31
2022-09-12T09:27:49.233Z,84.06
2022-09-12T09:30:19.562Z,83.12
2022-09-12T09:32:56.782Z,83.42
2022-09-12T09:35:43.517Z,84.25
2022-09-12T09:38:23.520Z,84.28
2022-09-12T09:41:38.248Z,84.60
2022-09-12T09:44:05.551Z,84.37
2022-09-12T09:46:33.434Z,84.55
2022-09-12T09:49:05.525Z,83.35
2022-09-12T09:51:38.737Z,83.73
2022-09-12T09:54:26.270Z,83.69
2022-09-12T09:56:56.575Z,81.87
2022-09-12T09:59:33.648Z,83.76
2022-09-12T10:02:24.079Z,83.52
2022-09-12T10:04:57.751Z,81.92
2022-09-12T10:07:26.523Z,82.46
2022-09-12T10:10:19.498Z,83.31
2022-09-12T10:12:46.471Z,82.94
2022-09-12T10:15:22.101Z,82.57
2022-09-12T10:17:51.132Z,82.50
2022-09-12T10:20:41.092Z,81.45
2022-09-12T10:23:37.082Z,82.81
2022-09-12T10:26:11.116Z,82.97
2022-09-12T10:28:49.149Z,83.28
2022-09-12T10:31:35.974Z,83.19
2022-09-12T10:34:03.153Z,81.83
2022-09-12T10:36:39.741Z,82.85
2022-09-12T10:39:16.074Z,80.84
2022-09-12T10:41:43.040Z,82.13
2022-09-12T10:44:18.901Z,82.53
2022-09-12T10:46:45.878Z,80.93
2022-09-12T10:49:40.306Z,82.88
2022-09-12T10:52:24.951Z,83.36
2022-09-12T10:54:53.551Z,83.76
2022-09-12T10:57:34.111Z,83.67
2022-09-12T11:00:17.354Z,84.65
2022-09-12T11:03:31.993Z,83.56
2022-09-12T11:06:01.569Z,83.50
2022-09-12T11:09:04.925Z,82.98
2022-09-12T11:12:00.906Z,83.60
2022-09-12T11:14:42.726Z,81.04
2022-09-12T11:17:23.919Z,80.14
2022-09-12T11:20:14.927Z,75.59
2022-09-12T11:23:07.420Z,79.86
2022-09-12T11:25:41.745Z,80.08
2022-09-12T11:28:37.521Z,81.19
2022-09-12T11:32:03.912Z,81.68
2022-09-12T11:35:03.105Z,75.73
2022-09-12T11:37:57.655Z,76.97
2022-09-12T11:41:06.431Z,78.55
2022-09-12T11:44:08.519Z,77.45
2022-09-12T11:46:36.463Z,75.52
2022-09-12T11:49:09.473Z,71.40
2022-09-12T11:52:00.232Z,76.59
2022-09-12T11:54:44.667Z,73.44
2022-09-12T11:57:39.908Z,76.98
2022-09-12T12:00:24.321Z,76.49
2022-09-12T12:03:26.987Z,77.54
2022-09-12T12:06:21.416Z,77.84
2022-09-12T12:08:50.540Z,72.34
2022-09-12T12:11:37.454Z,74.65
2022-09-12T12:14:32.849Z,69.97
2022-09-12T12:17:00.319Z,72.73
2022-09-12T12:19:37.655Z,73.43
2022-09-12T12:22:22.192Z,74.51
2022-09-12T12:25:01.894Z,75.19
2022-09-12T12:27:53.195Z,72.56
2022-09-12T12:30:28.847Z,72.43
2022-09-12T12:33:43.128Z,75.04
2022-09-12T12:36:28.779Z,70.35
2022-09-12T12:38:55.731Z,74.07
2022-09-12T12:41:23.495Z,74.47
2022-09-12T12:43:56.293Z,73.29
2022-09-12T12:46:26.578Z,69.52
2022-09-12T12:49:22.909Z,72.20
2022-09-12T12:51:58.741Z,69.56
2022-09-12T12:54:49.604Z,68.68
2022-09-12T12:57:40.918Z,72.83
2022-09-12T13:00:29.765Z,74.05
2022-09-12T13:03:01.133Z,73.06
2022-09-12T13:05:37.980Z,72.42
2022-09-12T13:08:35.359Z,74.63
2022-09-12T13:11:16.142Z,72.34
2022-09-12T13:13:57.801Z,73.96
2022-09-12T13:16:35.219Z,72.82
2022-09-12T13:19:18.324Z,71.13
2022-09-12T13:22:06.509Z,73.81
2022-09-12T13:24:34.798Z,71.59
2022-09-12T13:27:02.174Z,73.65
2022-09-12T13:29:29.228Z,70.60
2022-09-12T13:32:00.636Z,74.03
2022-09-12T13:34:33.798Z,72.41
2022-09-12T13:37:23.686Z,73.92
2022-09-12T13:40:37.114Z,72.27
2022-09-12T13:43:23.149Z,71.95
2022-09-12T13:45:50.670Z,71.54
2022-09-12T13:48:23.653Z,71.18
2022-09-12T13:50:59.952Z,72.42
2022-09-12T13:53:42.462Z,70.70
2022-09-12T13:56:19.574Z,71.24
2022-09-12T13:58:58.760Z,74.06
2022-09-12T14:01:42.546Z,75.20
2022-09-12T14:04:44.235Z,75.53
2022-09-12T14:07:20.113Z,73.39
2022-09-12T14:09:56.713Z,73.58
2022-09-12T14:12:43.532Z,74.14
2022-09-12T14:15:27.157Z,73.57
2022-09-12T14:17:59.579Z,70.25
2022-09-12T14:20:32.334Z,71.16
2022-09-12T14:23:16.822Z,72.66
2022-09-12T14:25:47.678Z,71.94
2022-09-12T14:28:23.569Z,72.13
2022-09-12T14:31:45.562Z,73.86
2022-09-12T14:34:18.390Z,70.03
2022-09-12T14:36:52.476Z,71.55
2022-09-12T14:39:32.783Z,69.67
2022-09-12T14:42:22.215Z,73.87
2022-09-12T14:45:15.135Z,73.23
2022-09-12T14:47:48.073Z,69.96
2022-09-12T14:50:23.363Z,66.97
2022-09-12T14:53:34.041Z,73.58
2022-09-12T14:56:10.175Z,73.08
2022-09-12T14:58:38.318Z,69.19
2022-09-12T15:01:08.206Z,70.38
2022-09-12T15:03:53.840Z,72.59
2022-09-12T15:06:36.172Z,72.05
2022-09-12T15:09:08.567Z,70.81
2022-09-12T15:11:35.527Z,71.06
2022-09-12T15:14:15.553Z,72.92
2022-09-12T15:16:42.393Z,74.51
2022-09-12T15:19:09.699Z,69.93
2022-09-12T15:21:36.618Z,69.32
2022-09-12T15:24:03.733Z,70.24
2022-09-12T15:26:31.572Z,70.10
2022-09-12T15:28:58.534Z,70.48
2022-09-12T15:31:32.407Z,71.61
2022-09-12T15:34:01.687Z,71.01
2022-09-12T15:36:29.184Z,69.84
2022-09-12T15:38:56.939Z,71.03
2022-09-12T15:41:37.321Z,72.53
2022-09-12T15:44:07.642Z,71.01
2022-09-12T15:46:34.677Z,70.43
2022-09-12T15:49:01.652Z,70.31
2022-09-12T15:51:28.912Z,69.94
2022-09-12T15:53:55.855Z,68.58
2022-09-12T15:56:23.312Z,69.90
2022-09-12T15:58:58.741Z,70.61
2022-09-12T16:01:27.929Z,70.84
2022-09-12T16:03:54.974Z,68.83
2022-09-12T16:06:22.466Z,70.38
2022-09-12T16:08:49.549Z,69.22
2022-09-12T16:11:24.561Z,71.27
2022-09-12T16:13:55.921Z,71.06
2022-09-12T16:16:22.977Z,69.84
2022-09-12T16:18:49.983Z,69.42
2022-09-12T16:21:17.119Z,69.82
2022-09-12T16:23:45.797Z,70.53
2022-09-12T16:26:13.263Z,70.77
2022-09-12T16:28:40.740Z,70.33
2022-09-12T16:31:11.171Z,70.74
2022-09-12T16:33:39.536Z,70.23
2022-09-12T16:36:09.912Z,69.94
2022-09-12T16:38:49.523Z,71.74
2022-09-12T16:41:18.455Z,70.25
2022-09-12T16:43:46.807Z,70.70
2022-09-12T16:46:17.467Z,71.30
2022-09-12T16:48:54.434Z,71.39
2022-09-12T16:51:31.986Z,71.52
2022-09-12T16:53:59.215Z,70.91
2022-09-12T16:56:26.237Z,70.96
2022-09-12T16:58:53.976Z,71.35
2022-09-12T17:01:26.166Z,71.66
2022-09-12T17:03:58.469Z,70.95
2022-09-12T17:06:27.081Z,71.07
2022-09-12T17:08:58.035Z,70.82
2022-09-12T17:11:37.434Z,71.69
2022-09-12T17:14:07.937Z,71.03
2022-09-12T17:16:39.067Z,70.57
2022-09-12T17:19:07.019Z,70.51
2022-09-12T17:21:35.180Z,70.63
2022-09-12T17:24:03.281Z,70.29
2022-09-12T17:26:30.210Z,70.03
2022-09-12T17:28:57.143Z,70.01
2022-09-12T17:31:24.141Z,69.81
2022-09-12T17:33:55.291Z,69.67
2022-09-12T17:36:22.699Z,69.13
2022-09-12T17:38:49.641Z,69.51
2022-09-12T17:41:20.661Z,69.26
2022-09-12T17:43:52.153Z,69.58
2022-09-12T17:46:20.525Z,68.94
2022-09-12T17:48:56.396Z,69.14
2022-09-12T17:51:25.926Z,68.41
2022-09-12T17:54:17.174Z,68.83
2022-09-12T17:56:46.535Z,68.54
2022-09-12T17:59:20.503Z,68.71
2022-09-12T18:02:07.478Z,68.14
2022-09-12T18:04:35.278Z,67.84
2022-09-12T18:07:02.374Z,68.13
2022-09-12T18:09:30.547Z,67.96
2022-09-12T18:11:58.285Z,67.79
2022-09-12T18:14:27.694Z,67.78
2022-09-12T18:16:57.075Z,68.09
2022-09-12T18:19:24.779Z,67.75
2022-09-12T18:21:51.840Z,68.16
2022-09-12T18:24:19.108Z,68.29
2022-09-12T18:26:46.798Z,68.35
2022-09-12T18:29:19.788Z,67.94
2022-09-12T18:31:47.745Z,67.88
2022-09-12T18:34:16.950Z,67.86
2022-09-12T18:36:49.913Z,66.11
2022-09-12T18:39:17.870Z,66.92
2022-09-12T18:41:50.051Z,66.52
2022-09-12T18:44:17.099Z,66.66
2022-09-12T18:46:44.080Z,66.25
2022-09-12T18:49:11.133Z,66.61
2022-09-12T18:51:40.080Z,66.25
2022-09-12T18:54:13.489Z,65.73
2022-09-12T18:56:43.420Z,65.85
2022-09-12T18:59:13.925Z,66.98
2022-09-12T19:01:41.702Z,65.39
2022-09-12T19:04:10.455Z,65.82
2022-09-12T19:06:42.069Z,65.49
2022-09-12T19:09:11.129Z,64.98
2022-09-12T19:11:42.440Z,65.09
2022-09-12T19:14:09.470Z,65.58
2022-09-12T19:16:37.521Z,65.27
2022-09-12T19:19:04.504Z,65.74
2022-09-12T19:21:34.440Z,65.47
2022-09-12T19:24:10.061Z,65.24
2022-09-12T19:26:38.957Z,65.43
2022-09-12T19:29:07.015Z,64.87
2022-09-12T19:31:34.363Z,64.72
2022-09-12T19:34:03.318Z,63.90
2022-09-12T19:36:47.269Z,63.78
2022-09-12T19:39:16.242Z,64.50
2022-09-12T19:41:44.532Z,63.71
2022-09-12T19:44:11.658Z,63.11
2022-09-12T19:46:38.675Z,64.07
2022-09-12T19:49:05.739Z,63.53
2022-09-12T19:51:33.612Z,63.70
2022-09-12T19:54:00.612Z,63.30
2022-09-12T19:56:27.550Z,63.76
2022-09-12T19:58:56.629Z,62.19
2022-09-12T20:01:28.503Z,62.59
2022-09-12T20:03:57.594Z,63.21
2022-09-12T20:06:25.475Z,61.90
2022-09-12T20:08:52.449Z,62.78
2022-09-12T20:11:21.973Z,62.81
2022-09-12T20:13:49.498Z,62.44
2022-09-12T20:16:26.419Z,60.96
2022-09-12T20:19:03.755Z,62.76
2022-09-12T20:21:32.500Z,61.84
2022-09-12T20:24:11.081Z,61.41
2022-09-12T20:26:38.323Z,61.73
2022-09-12T20:29:06.790Z,61.46
2022-09-12T20:31:35.520Z,61.21
2022-09-12T20:34:03.401Z,62.20
2022-09-12T20:36:30.939Z,60.90
2022-09-12T20:39:01.311Z,61.83
2022-09-12T20:41:31.215Z,62.25
2022-09-12T20:44:00.861Z,62.02
2022-09-12T20:46:28.989Z,61.13
2022-09-12T20:48:56.249Z,61.41
2022-09-12T20:51:26.444Z,61.60
2022-09-12T20:53:54.958Z,61.90
2022-09-12T20:56:23.432Z,61.52
2022-09-12T20:58:51.091Z,60.30
2022-09-12T21:01:18.490Z,60.07
2022-09-12T21:03:46.570Z,61.27
2022-09-12T21:06:16.855Z,60.91
2022-09-12T21:08:46.610Z,60.60
2022-09-12T21:11:14.402Z,60.45
2022-09-12T21:13:41.413Z,61.02
2022-09-12T21:16:13.451Z,60.98
2022-09-12T21:18:41.160Z,60.69
2022-09-12T21:21:10.007Z,60.86
2022-09-12T21:23:37.405Z,60.04
2022-09-12T21:26:04.681Z,60.94
2022-09-12T21:28:31.730Z,60.77
2022-09-12T21:30:58.686Z,60.64
2022-09-12T21:33:26.395Z,61.29
2022-09-12T21:35:53.414Z,61.23
2022-09-12T21:38:20.808Z,61.24
2022-09-12T21:40:48.211Z,60.92
2022-09-12T21:43:15.489Z,60.96
2022-09-12T21:45:42.445Z,60.31
2022-09-12T21:48:13.437Z,61.19
2022-09-12T21:50:40.461Z,61.59
2022-09-12T21:53:07.540Z,61.37
2022-09-12T21:55:34.658Z,60.99
2022-09-12T21:58:01.669Z,61.48
2022-09-12T22:00:28.652Z,61.01
2022-09-12T22:02:56.153Z,60.80
2022-09-12T22:05:23.604Z,60.50
2022-09-12T22:07:50.999Z,61.20
2022-09-12T22:10:18.039Z,61.16
2022-09-12T22:12:46.499Z,60.79
2022-09-12T22:15:36.258Z,60.63
2022-09-12T22:18:01.495Z,61.23
2022-09-12T22:20:28.594Z,61.12
2022-09-12T22:23:14.323Z,60.16
2022-09-12T22:25:41.431Z,60.66
2022-09-12T22:28:08.360Z,61.14
2022-09-12T22:30:35.436Z,61.27
2022-09-12T22:33:02.418Z,61.23
2022-09-12T22:35:29.348Z,61.27
2022-09-12T22:37:56.287Z,61.30
2022-09-12T22:40:23.325Z,60.96
2022-09-12T22:42:52.679Z,61.38
2022-09-12T22:45:19.873Z,61.29
2022-09-12T22:47:46.883Z,61.67
2022-09-12T22:50:14.336Z,61.32
2022-09-12T22:52:41.632Z,61.16
2022-09-12T22:55:09.655Z,60.96
2022-09-12T22:57:37.344Z,61.61
2022-09-12T23:00:08.472Z,61.14
2022-09-12T23:02:35.400Z,61.85
2022-09-12T23:05:03.333Z,62.10
2022-09-12T23:07:30.263Z,61.81
2022-09-12T23:09:57.182Z,61.90
2022-09-12T23:12:24.176Z,61.90
2022-09-12T23:14:51.106Z,62.29
2022-09-12T23:17:18.058Z,62.31
2022-09-12T23:19:45.812Z,61.42
2022-09-12T23:22:12.735Z,61.78
2022-09-12T23:24:39.712Z,61.70
2022-09-12T23:27:06.657Z,61.69
2022-09-12T23:29:35.231Z,61.48
2022-09-12T23:32:03.947Z,61.54
2022-09-12T23:34:30.978Z,61.28
2022-09-12T23:37:01.075Z,61.71
2022-09-12T23:39:28.155Z,61.80
2022-09-12T23:41:55.522Z,61.52
2022-09-12T23:44:22.440Z,62.25
2022-09-12T23:46:49.350Z,61.93
2022-09-12T23:49:16.308Z,61.92
2022-09-12T23:51:43.330Z,62.24
2022-09-12T23:54:10.261Z,62.07
2022-09-12T23:56:37.177Z,62.30
2022-09-12T23:59:04.995Z,62.33
